createdAt,value
2023-01-23T00:01:35.215Z,4.93
2023-01-23T00:04:03.362Z,5.13
2023-01-23T00:06:31.105Z,5.03
2023-01-23T00:09:00.009Z,5.13
2023-01-23T00:11:29.997Z,5.16
2023-01-23T00:13:58.193Z,5.24
2023-01-23T00:16:26.977Z,5.33
2023-01-23T00:18:54.675Z,5.29
2023-01-23T00:21:23.975Z,5.28
2023-01-23T00:23:53.023Z,5.21
2023-01-23T00:26:24.178Z,5.34
2023-01-23T00:28:51.746Z,5.19
2023-01-23T00:31:20.910Z,5.34
2023-01-23T00:33:48.486Z,5.44
2023-01-23T00:36:16.387Z,5.30
2023-01-23T00:38:43.802Z,5.24
2023-01-23T00:41:12.409Z,5.23
2023-01-23T00:43:41.265Z,5.39
2023-01-23T00:46:08.678Z,5.12
2023-01-23T00:48:36.141Z,5.22
2023-01-23T00:51:03.577Z,5.03
2023-01-23T00:53:31.019Z,5.01
2023-01-23T00:55:58.411Z,5.08
2023-01-23T00:58:26.122Z,5.07
2023-01-23T01:00:55.021Z,5.10
2023-01-23T01:03:25.010Z,5.08
2023-01-23T01:05:52.752Z,5.14
2023-01-23T01:08:20.398Z,5.05
2023-01-23T01:10:47.835Z,5.11
2023-01-23T01:13:19.037Z,4.99
2023-01-23T01:15:46.478Z,5.05
2023-01-23T01:18:15.721Z,5.02
2023-01-23T01:20:44.075Z,5.24
2023-01-23T01:23:11.582Z,5.30
2023-01-23T01:25:39.742Z,5.02
2023-01-23T01:28:07.512Z,4.97
2023-01-23T01:30:36.653Z,5.04
2023-01-23T01:33:04.244Z,5.08
2023-01-23T01:35:33.155Z,5.08
2023-01-23T01:38:00.748Z,5.06
2023-01-23T01:40:30.489Z,5.10
2023-01-23T01:43:00.846Z,5.21
2023-01-23T01:46:03.086Z,5.24
2023-01-23T01:48:33.143Z,5.33
2023-01-23T01:51:02.410Z,5.12
2023-01-23T01:53:30.689Z,5.28
2023-01-23T01:55:58.470Z,5.30
2023-01-23T01:58:26.170Z,5.11
2023-01-23T02:00:54.290Z,5.01
2023-01-23T02:03:22.301Z,5.05
2023-01-23T02:05:50.740Z,5.13
2023-01-23T02:08:23.735Z,5.20
2023-01-23T02:10:54.009Z,5.06
2023-01-23T02:13:24.693Z,5.14
2023-01-23T02:15:52.709Z,5.11
2023-01-23T02:18:20.676Z,4.98
2023-01-23T02:20:48.495Z,4.85
2023-01-23T02:23:23.856Z,4.88
2023-01-23T02:25:56.218Z,4.97
2023-01-23T02:28:24.186Z,4.95
2023-01-23T02:30:51.626Z,4.99
2023-01-23T02:33:50.964Z,5.21
2023-01-23T02:36:20.438Z,5.13
2023-01-23T02:38:54.658Z,5.24
2023-01-23T02:41:25.792Z,5.29
2023-01-23T02:43:54.850Z,5.16
2023-01-23T02:46:22.283Z,5.03
2023-01-23T02:48:49.669Z,5.02
2023-01-23T02:51:18.477Z,5.00
2023-01-23T02:53:45.934Z,4.84
2023-01-23T02:56:13.361Z,4.97
2023-01-23T02:59:00.257Z,5.03
2023-01-23T03:01:28.341Z,5.06
2023-01-23T03:04:03.512Z,5.13
2023-01-23T03:06:36.029Z,4.72
2023-01-23T03:09:07.636Z,4.80
2023-01-23T03:11:36.127Z,4.76
2023-01-23T03:14:06.126Z,4.91
2023-01-23T03:16:36.038Z,4.97
2023-01-23T03:19:08.184Z,5.17
2023-01-23T03:21:37.419Z,5.24
2023-01-23T03:24:05.897Z,5.28
2023-01-23T03:26:33.305Z,5.30
2023-01-23T03:29:18.642Z,5.34
2023-01-23T03:31:47.561Z,5.35
2023-01-23T03:34:17.803Z,5.36
2023-01-23T03:36:45.323Z,5.32
2023-01-23T03:39:30.313Z,5.32
2023-01-23T03:41:57.802Z,5.33
2023-01-23T03:44:25.249Z,5.32
2023-01-23T03:46:54.181Z,5.30
2023-01-23T03:49:21.936Z,5.36
2023-01-23T03:51:49.443Z,5.35
2023-01-23T03:54:16.901Z,5.30
2023-01-23T03:56:44.775Z,5.35
2023-01-23T03:59:12.243Z,5.33
2023-01-23T04:01:40.109Z,5.31
2023-01-23T04:04:08.962Z,5.32
2023-01-23T04:06:36.374Z,5.39
2023-01-23T04:09:04.013Z,5.33
2023-01-23T04:11:31.377Z,5.42
2023-01-23T04:13:59.045Z,5.38
2023-01-23T04:16:28.624Z,5.15
2023-01-23T04:18:56.267Z,5.35
2023-01-23T04:21:25.412Z,5.20
2023-01-23T04:23:52.966Z,5.33
2023-01-23T04:26:20.445Z,5.23
2023-01-23T04:28:47.799Z,5.12
2023-01-23T04:31:15.269Z,5.24
2023-01-23T04:33:42.693Z,5.09
2023-01-23T04:36:11.570Z,5.32
2023-01-23T04:38:40.405Z,5.40
2023-01-23T04:41:07.924Z,5.35
2023-01-23T04:43:35.846Z,5.19
2023-01-23T04:46:03.298Z,5.25
2023-01-23T04:48:30.737Z,4.85
2023-01-23T04:50:58.188Z,5.04
2023-01-23T04:53:25.709Z,5.21
2023-01-23T04:55:54.627Z,5.12
2023-01-23T04:58:22.133Z,4.88
2023-01-23T05:00:49.645Z,4.98
2023-01-23T05:03:17.641Z,5.10
2023-01-23T05:05:45.118Z,5.19
2023-01-23T05:08:13.042Z,5.34
2023-01-23T05:10:40.722Z,5.35
2023-01-23T05:13:10.398Z,5.40
2023-01-23T05:15:37.821Z,5.16
2023-01-23T05:18:05.352Z,5.33
2023-01-23T05:20:32.737Z,5.34
2023-01-23T05:23:00.104Z,5.09
2023-01-23T05:25:29.115Z,4.96
2023-01-23T05:27:56.818Z,4.80
2023-01-23T05:30:25.597Z,4.96
2023-01-23T05:32:53.126Z,4.97
2023-01-23T05:35:20.590Z,5.02
2023-01-23T05:37:50.337Z,5.03
2023-01-23T05:40:18.771Z,5.00
2023-01-23T05:42:46.534Z,5.01
2023-01-23T05:45:14.176Z,4.97
2023-01-23T05:47:43.487Z,4.85
2023-01-23T05:50:15.460Z,4.77
2023-01-23T05:52:42.959Z,4.70
2023-01-23T05:55:10.548Z,4.83
2023-01-23T05:57:37.998Z,4.83
2023-01-23T06:00:06.442Z,4.87
2023-01-23T06:02:35.052Z,5.04
2023-01-23T06:05:03.889Z,5.09
2023-01-23T06:07:31.398Z,5.14
2023-01-23T06:09:58.796Z,5.26
2023-01-23T06:12:26.393Z,5.01
2023-01-23T06:14:53.737Z,4.96
2023-01-23T06:17:21.303Z,4.91
2023-01-23T06:19:48.863Z,4.92
2023-01-23T06:22:17.701Z,5.04
2023-01-23T06:24:45.171Z,4.95
2023-01-23T06:27:12.665Z,4.88
2023-01-23T06:29:40.117Z,4.76
2023-01-23T06:32:07.625Z,4.80
2023-01-23T06:34:36.853Z,4.71
2023-01-23T06:37:04.489Z,4.69
2023-01-23T06:39:34.115Z,4.82
2023-01-23T06:42:01.617Z,4.77
2023-01-23T06:44:29.267Z,5.06
2023-01-23T06:46:56.611Z,5.00
2023-01-23T06:49:24.011Z,5.18
2023-01-23T06:51:51.368Z,5.17
2023-01-23T06:54:18.769Z,5.14
2023-01-23T06:56:49.424Z,5.19
2023-01-23T06:59:16.921Z,5.26
2023-01-23T07:01:44.359Z,5.28
2023-01-23T07:04:11.785Z,5.21
2023-01-23T07:06:39.233Z,5.12
2023-01-23T07:09:06.608Z,4.83
2023-01-23T07:11:34.112Z,5.10
2023-01-23T07:14:02.950Z,5.12
2023-01-23T07:16:30.409Z,5.21
2023-01-23T07:18:58.817Z,5.12
2023-01-23T07:21:26.323Z,5.02
2023-01-23T07:23:53.789Z,5.19
2023-01-23T07:26:21.292Z,5.13
2023-01-23T07:28:48.720Z,5.12
2023-01-23T07:31:17.615Z,5.11
2023-01-23T07:33:44.982Z,5.02
2023-01-23T07:36:13.958Z,5.00
2023-01-23T07:38:41.935Z,5.14
2023-01-23T07:41:10.062Z,4.91
2023-01-23T07:43:38.159Z,4.75
2023-01-23T07:46:05.766Z,5.09
2023-01-23T07:48:34.501Z,5.21
2023-01-23T07:51:03.119Z,5.10
2023-01-23T07:53:30.758Z,5.10
2023-01-23T07:55:58.246Z,5.14
2023-01-23T07:58:25.809Z,5.01
2023-01-23T08:00:53.410Z,4.98
2023-01-23T08:03:21.088Z,4.67
2023-01-23T08:05:50.790Z,4.98
2023-01-23T08:08:18.179Z,5.12
2023-01-23T08:10:45.553Z,5.17
2023-01-23T08:13:13.161Z,4.97
2023-01-23T08:15:40.688Z,4.90
2023-01-23T08:18:08.204Z,4.98
2023-01-23T08:20:35.633Z,5.13
2023-01-23T08:23:04.331Z,5.05
2023-01-23T08:25:32.044Z,5.11
2023-01-23T08:27:59.404Z,5.02
2023-01-23T08:30:26.890Z,5.13
2023-01-23T08:32:54.320Z,4.95
2023-01-23T08:35:21.684Z,4.85
2023-01-23T08:37:49.414Z,4.98
2023-01-23T08:40:18.874Z,5.06
2023-01-23T08:42:46.373Z,4.88
2023-01-23T08:45:13.797Z,4.83
2023-01-23T08:47:41.148Z,5.00
2023-01-23T08:50:10.237Z,4.62
2023-01-23T08:52:37.585Z,4.77
2023-01-23T08:55:05.572Z,4.92
2023-01-23T08:57:34.318Z,4.73
2023-01-23T09:00:01.700Z,4.54
2023-01-23T09:02:29.144Z,4.81
2023-01-23T09:04:56.487Z,4.95
2023-01-23T09:07:23.976Z,4.99
2023-01-23T09:09:51.422Z,5.11
2023-01-23T09:12:18.782Z,5.05
2023-01-23T09:14:47.505Z,5.03
2023-01-23T09:17:14.838Z,5.08
2023-01-23T09:19:42.231Z,5.03
2023-01-23T09:22:09.580Z,4.96
2023-01-23T09:24:36.925Z,4.86
2023-01-23T09:27:04.438Z,4.77
2023-01-23T09:29:31.825Z,4.82
2023-01-23T09:32:00.579Z,5.01
2023-01-23T09:34:28.015Z,4.69
2023-01-23T09:36:55.533Z,4.89
2023-01-23T09:39:23.030Z,4.90
2023-01-23T09:41:50.565Z,4.79
2023-01-23T09:44:21.434Z,4.85
2023-01-23T09:46:51.483Z,4.95
2023-01-23T09:49:26.794Z,5.02
2023-01-23T09:51:57.599Z,4.95
2023-01-23T09:54:38.725Z,4.92
2023-01-23T09:57:14.339Z,5.06
2023-01-23T09:59:58.734Z,4.92
2023-01-23T10:02:28.762Z,4.98
2023-01-23T10:04:58.975Z,4.85
2023-01-23T10:07:45.754Z,4.75
2023-01-23T10:10:38.382Z,4.75
2023-01-23T10:13:09.057Z,4.99
2023-01-23T10:15:48.447Z,4.70
2023-01-23T10:18:20.235Z,5.01
2023-01-23T10:20:52.561Z,4.98
2023-01-23T10:23:33.578Z,5.05
2023-01-23T10:26:04.498Z,5.06
2023-01-23T10:28:34.923Z,5.08
2023-01-23T10:31:04.943Z,5.09
2023-01-23T10:33:40.487Z,5.18
2023-01-23T10:36:23.633Z,5.28
2023-01-23T10:38:59.076Z,5.15
2023-01-23T10:41:26.511Z,5.22
2023-01-23T10:43:56.900Z,5.23
2023-01-23T10:46:30.295Z,5.15
2023-01-23T10:48:58.108Z,5.12
2023-01-23T10:51:47.990Z,5.06
2023-01-23T10:54:31.199Z,5.21
2023-01-23T10:57:01.335Z,5.19
2023-01-23T10:59:32.602Z,5.19
2023-01-23T11:02:17.580Z,5.18
2023-01-23T11:04:46.575Z,5.18
2023-01-23T11:07:17.990Z,5.17
2023-01-23T11:09:48.325Z,5.17
2023-01-23T11:12:18.746Z,5.05
2023-01-23T11:14:46.750Z,5.09
2023-01-23T11:17:20.718Z,5.01
2023-01-23T11:19:49.791Z,4.96
2023-01-23T11:22:33.033Z,5.06
2023-01-23T11:25:00.862Z,5.13
2023-01-23T11:27:30.866Z,5.08
2023-01-23T11:30:28.457Z,5.23
2023-01-23T11:32:59.194Z,5.14
2023-01-23T11:35:46.330Z,5.13
2023-01-23T11:38:27.169Z,5.20
2023-01-23T11:40:57.648Z,5.15
2023-01-23T11:43:26.108Z,5.22
2023-01-23T11:46:06.451Z,5.18
2023-01-23T11:48:48.260Z,5.25
2023-01-23T11:51:21.329Z,5.26
2023-01-23T11:53:55.486Z,5.22
2023-01-23T11:56:41.265Z,5.23
2023-01-23T11:59:42.009Z,5.36
2023-01-23T12:02:47.792Z,5.35
2023-01-23T12:05:39.145Z,5.36
2023-01-23T12:08:18.364Z,5.33
2023-01-23T12:10:55.498Z,5.32
2023-01-23T12:13:36.558Z,5.46
2023-01-23T12:16:11.515Z,5.34
2023-01-23T12:18:47.338Z,5.36
2023-01-23T12:21:19.165Z,5.15
2023-01-23T12:24:01.364Z,5.22
2023-01-23T12:26:30.810Z,5.09
2023-01-23T12:29:28.082Z,5.07
2023-01-23T12:32:05.243Z,5.17
2023-01-23T12:34:46.787Z,5.24
2023-01-23T12:37:37.238Z,5.32
2023-01-23T12:40:13.209Z,5.35
2023-01-23T12:42:48.733Z,5.34
2023-01-23T12:45:22.773Z,5.22
2023-01-23T12:47:56.534Z,5.32
2023-01-23T12:50:36.175Z,5.30
2023-01-23T12:53:07.844Z,5.44
2023-01-23T12:55:38.284Z,5.37
2023-01-23T12:58:09.466Z,5.41
2023-01-23T13:00:45.798Z,5.40
2023-01-23T13:03:44.870Z,5.20
2023-01-23T13:06:30.155Z,5.21
2023-01-23T13:09:16.756Z,5.33
2023-01-23T13:11:51.462Z,5.32
2023-01-23T13:14:25.417Z,5.44
2023-01-23T13:16:55.545Z,5.33
2023-01-23T13:19:42.859Z,5.30
2023-01-23T13:22:26.990Z,5.40
2023-01-23T13:25:12.543Z,5.35
2023-01-23T13:27:46.110Z,5.42
2023-01-23T13:30:42.589Z,5.18
2023-01-23T13:34:03.689Z,5.19
2023-01-23T13:36:38.541Z,5.33
2023-01-23T13:39:21.869Z,5.23
2023-01-23T13:41:51.275Z,5.30
2023-01-23T13:44:27.128Z,5.34
2023-01-23T14:20:42.340Z,5.28
2023-01-23T14:23:18.906Z,5.22
2023-01-23T14:25:46.399Z,5.33
2023-01-23T14:28:18.049Z,5.38
2023-01-23T14:30:54.723Z,5.39
2023-01-23T14:33:22.181Z,5.41
2023-01-23T14:35:52.364Z,5.52
2023-01-23T14:38:25.415Z,5.53
2023-01-23T14:40:52.857Z,5.49
2023-01-23T14:43:22.451Z,5.57
2023-01-23T14:45:53.632Z,5.46
2023-01-23T14:48:22.134Z,5.43
2023-01-23T14:50:49.529Z,5.47
2023-01-23T14:53:18.212Z,5.37
2023-01-23T14:55:49.562Z,5.42
2023-01-23T14:58:21.960Z,5.41
2023-01-23T15:00:50.197Z,5.47
2023-01-23T15:03:35.889Z,5.39
2023-01-23T15:06:04.501Z,5.55
2023-01-23T15:08:34.517Z,5.47
2023-01-23T15:11:03.047Z,5.30
2023-01-23T15:13:36.059Z,5.50
2023-01-23T15:16:05.061Z,5.57
2023-01-23T15:18:34.492Z,5.43
2023-01-23T15:21:03.753Z,5.43
2023-01-23T15:23:34.912Z,5.39
2023-01-23T15:26:26.829Z,5.54
2023-01-23T15:28:55.329Z,5.57
2023-01-23T15:31:26.269Z,5.50
2023-01-23T15:33:54.057Z,5.55
2023-01-23T15:36:27.464Z,5.53
2023-01-23T15:38:58.165Z,5.51
2023-01-23T15:41:39.237Z,5.44
2023-01-23T15:44:13.219Z,5.48
2023-01-23T15:46:40.636Z,5.41
2023-01-23T15:49:16.435Z,5.49
2023-01-23T15:51:51.546Z,5.49
2023-01-23T15:54:26.209Z,5.37
2023-01-23T15:57:05.570Z,5.49
2023-01-23T15:59:35.110Z,5.65
2023-01-23T16:02:02.477Z,5.63
2023-01-23T16:04:29.827Z,5.60
2023-01-23T16:06:57.389Z,5.43
2023-01-23T16:09:30.520Z,5.61
2023-01-23T16:11:58.188Z,5.49
2023-01-23T16:14:25.718Z,5.60
2023-01-23T16:16:53.099Z,5.75
2023-01-23T16:19:20.526Z,5.61
2023-01-23T16:22:03.171Z,5.69
2023-01-23T16:24:36.010Z,5.65
2023-01-23T16:27:03.553Z,5.64
2023-01-23T16:29:32.519Z,5.31
2023-01-23T16:32:01.581Z,5.49
2023-01-23T16:34:29.288Z,5.45
2023-01-23T16:36:59.080Z,5.35
2023-01-23T16:39:27.925Z,5.34
2023-01-23T16:41:56.642Z,5.64
2023-01-23T16:44:24.804Z,5.72
2023-01-23T16:46:53.286Z,5.56
2023-01-23T16:49:21.159Z,5.57
2023-01-23T16:51:52.870Z,5.45
2023-01-23T16:54:21.289Z,5.36
2023-01-23T16:56:50.830Z,5.61
2023-01-23T16:59:21.401Z,5.64
2023-01-23T17:01:51.544Z,5.65
2023-01-23T17:04:21.378Z,5.56
2023-01-23T17:06:49.290Z,5.54
2023-01-23T17:09:17.471Z,5.60
2023-01-23T17:11:47.474Z,5.48
2023-01-23T17:14:17.035Z,5.33
2023-01-23T17:16:46.293Z,5.36
2023-01-23T17:19:19.847Z,5.46
2023-01-23T17:21:47.560Z,5.29
2023-01-23T17:24:16.182Z,5.28
2023-01-23T17:26:43.886Z,5.49
2023-01-23T17:29:12.085Z,5.53
2023-01-23T17:31:40.156Z,5.56
2023-01-23T17:34:15.535Z,5.59
2023-01-23T17:36:43.050Z,5.58
2023-01-23T17:39:10.611Z,5.52
2023-01-23T17:41:38.084Z,5.49
2023-01-23T17:44:06.138Z,5.57
2023-01-23T17:46:36.758Z,5.52
2023-01-23T17:49:05.181Z,5.48
2023-01-23T17:51:34.263Z,5.54
2023-01-23T17:54:01.637Z,5.66
2023-01-23T17:56:29.069Z,5.66
2023-01-23T17:58:56.551Z,5.63
2023-01-23T18:01:25.605Z,5.66
2023-01-23T18:03:53.652Z,5.67
2023-01-23T18:06:21.376Z,5.70
2023-01-23T18:08:50.271Z,5.70
2023-01-23T18:11:19.965Z,5.72
2023-01-23T18:13:54.695Z,5.72
2023-01-23T18:16:25.585Z,5.65
2023-01-23T18:18:57.951Z,5.59
2023-01-23T18:21:25.750Z,5.59
2023-01-23T18:23:55.302Z,5.61
2023-01-23T18:26:33.078Z,5.65
2023-01-23T18:29:06.671Z,5.68
2023-01-23T18:31:39.457Z,5.70
2023-01-23T18:34:15.707Z,5.65
2023-01-23T18:36:51.394Z,5.57
2023-01-23T18:39:34.857Z,5.45
2023-01-23T18:42:14.387Z,5.43
2023-01-23T18:44:43.491Z,5.52
2023-01-23T18:47:12.633Z,5.56
2023-01-23T18:49:41.014Z,5.35
2023-01-23T18:52:10.847Z,5.40
2023-01-23T18:54:43.729Z,5.30
2023-01-23T18:57:19.386Z,5.36
2023-01-23T18:59:49.758Z,5.52
2023-01-23T19:02:26.051Z,5.53
2023-01-23T19:04:58.635Z,5.52
2023-01-23T19:07:26.449Z,5.52
2023-01-23T19:09:56.017Z,5.52
2023-01-23T19:12:28.673Z,5.57
2023-01-23T19:15:16.198Z,5.63
2023-01-23T19:17:46.015Z,5.45
2023-01-23T19:20:27.365Z,5.40
2023-01-23T19:23:02.064Z,5.63
2023-01-23T19:25:31.337Z,5.61
2023-01-23T19:28:00.898Z,5.60
2023-01-23T19:30:28.964Z,5.53
2023-01-23T19:32:56.349Z,5.46
2023-01-23T19:35:23.826Z,5.63
2023-01-23T19:37:51.377Z,5.62
2023-01-23T19:40:19.322Z,5.62
2023-01-23T19:42:56.334Z,5.71
2023-01-23T19:45:29.083Z,5.52
2023-01-23T19:47:56.518Z,5.63
2023-01-23T19:50:24.036Z,5.74
2023-01-23T19:52:52.430Z,5.67
2023-01-23T19:55:25.471Z,5.66
2023-01-23T19:57:56.142Z,5.55
2023-01-23T20:00:24.059Z,5.68
2023-01-23T20:02:51.529Z,5.72
2023-01-23T20:05:19.374Z,5.72
2023-01-23T20:07:46.903Z,5.73
2023-01-23T20:10:14.412Z,5.60
2023-01-23T20:12:43.005Z,5.63
2023-01-23T20:15:13.212Z,5.63
2023-01-23T20:17:41.330Z,5.71
2023-01-23T20:20:22.844Z,5.70
2023-01-23T20:22:59.470Z,5.69
2023-01-23T20:25:36.895Z,5.70
2023-01-23T20:28:04.777Z,5.74
2023-01-23T20:30:33.706Z,5.74
2023-01-23T20:33:01.244Z,5.76
2023-01-23T20:35:29.675Z,5.64
2023-01-23T20:37:57.216Z,5.71
2023-01-23T20:40:24.727Z,5.71
2023-01-23T20:42:52.143Z,5.72
2023-01-23T20:45:19.668Z,5.75
2023-01-23T20:47:49.163Z,5.72
2023-01-23T20:50:17.246Z,5.72
2023-01-23T20:53:02.483Z,5.70
2023-01-23T20:55:30.029Z,5.76
2023-01-23T20:58:15.392Z,5.64
2023-01-23T21:00:44.663Z,5.71
2023-01-23T21:03:13.853Z,5.69
2023-01-23T21:05:42.833Z,5.64
2023-01-23T21:11:34.816Z,5.70
2023-01-23T21:14:25.626Z,5.73
2023-01-23T21:17:22.093Z,5.69
2023-01-23T21:19:50.910Z,5.67
2023-01-23T21:22:28.058Z,5.71
2023-01-23T21:24:55.715Z,5.66
2023-01-23T21:27:25.165Z,5.64
2023-01-23T21:29:53.422Z,5.73
2023-01-23T21:32:23.499Z,5.78
2023-01-23T21:34:52.457Z,5.74
2023-01-23T21:37:20.178Z,5.70
2023-01-23T21:39:47.779Z,5.63
2023-01-23T21:42:15.394Z,5.69
2023-01-23T21:44:42.849Z,5.66
2023-01-23T21:47:10.286Z,5.65
2023-01-23T21:49:37.834Z,5.63
2023-01-23T21:52:06.580Z,5.71
2023-01-23T21:54:33.963Z,5.68
2023-01-23T21:57:03.112Z,5.72
2023-01-23T21:59:30.479Z,5.62
2023-01-23T22:01:56.992Z,5.65
2023-01-23T22:04:24.523Z,5.68
2023-01-23T22:06:54.221Z,5.64
2023-01-23T22:09:25.786Z,5.73
2023-01-23T22:11:53.590Z,5.73
2023-01-23T22:14:21.220Z,5.69
2023-01-23T22:16:50.250Z,5.67
2023-01-23T22:19:20.990Z,5.69
2023-01-23T22:21:49.611Z,5.72
2023-01-23T22:24:17.135Z,5.65
2023-01-23T22:26:45.952Z,5.71
2023-01-23T22:29:14.834Z,5.74
2023-01-23T22:31:42.507Z,5.63
2023-01-23T22:34:10.679Z,5.62
2023-01-23T22:36:38.430Z,5.63
2023-01-23T22:39:05.936Z,5.61
2023-01-23T22:41:33.604Z,5.69
2023-01-23T22:44:02.360Z,5.68
2023-01-23T22:46:32.036Z,5.66
2023-01-23T22:48:59.587Z,5.72
2023-01-23T22:51:28.403Z,5.67
2023-01-23T22:53:57.034Z,5.68
2023-01-23T22:56:25.543Z,5.57
2023-01-23T22:58:54.407Z,5.52
2023-01-23T23:01:23.918Z,5.50
2023-01-23T23:03:51.407Z,5.45
2023-01-23T23:06:19.260Z,5.58
2023-01-23T23:08:48.137Z,5.24
2023-01-23T23:11:17.598Z,5.35
2023-01-23T23:13:45.788Z,5.54
2023-01-23T23:16:15.612Z,5.62
2023-01-23T23:18:44.988Z,5.60
2023-01-23T23:21:14.835Z,5.54
2023-01-23T23:23:42.353Z,5.53
2023-01-23T23:26:10.857Z,5.58
2023-01-23T23:28:39.633Z,5.62
2023-01-23T23:31:08.197Z,5.61
2023-01-23T23:33:35.780Z,5.68
2023-01-23T23:36:04.665Z,5.59
2023-01-23T23:38:32.144Z,5.60
2023-01-23T23:41:00.919Z,5.57
2023-01-23T23:43:29.207Z,5.54
2023-01-23T23:45:58.003Z,5.65
2023-01-23T23:48:26.461Z,5.65
2023-01-23T23:50:54.544Z,5.61
2023-01-23T23:53:23.818Z,5.51
2023-01-23T23:55:51.391Z,5.49
2023-01-23T23:58:18.988Z,5.53
